Terminal Aerodrome Forecast
Issued by NWS

Home | Current Version | Previous Version | Text Only | Print | Product List | Glossary On
Versions: 1 2 3 4 5 6 7 8 9 10 11 12 13 14 15 16 17 18 19 20 21 22 23 24 25
000
FTPA31 PHFO 271700
TAFOGG
TAF
PHOG 271730Z 2718/2818 02006KT P6SM SCT050 BKN060
     FM272000 02012KT P6SM SCT040 BKN060
     FM280500 06005KT P6SM SCT040 BKN060
      AMD LTD TO VIS AND WIND 2809/2816=

USA.gov is the U.S. government's official web portal to all federal, state and local government web resources and services.